sensor_id;sensor_type;location;lat;lon;timestamp;temperature;humidity
39825;DHT22;25503;52.532;13.640;2023-04-24T00:00:10;10.90;99.90
39825;DHT22;25503;52.532;13.640;2023-04-24T00:02:38;11.00;99.90
39825;DHT22;25503;52.532;13.640;2023-04-24T00:05:05;10.90;99.90
39825;DHT22;25503;52.532;13.640;2023-04-24T00:07:32;10.90;99.90
39825;DHT22;25503;52.532;13.640;2023-04-24T00:09:58;10.90;99.90
39825;DHT22;25503;52.532;13.640;2023-04-24T00:12:24;10.90;99.90
39825;DHT22;25503;52.532;13.640;2023-04-24T00:14:50;10.90;99.90
39825;DHT22;25503;52.532;13.640;2023-04-24T00:17:16;10.80;99.90
39825;DHT22;25503;52.532;13.640;2023-04-24T00:19:45;10.80;99.90
39825;DHT22;25503;52.532;13.640;2023-04-24T00:22:11;10.80;99.90
39825;DHT22;25503;52.532;13.640;2023-04-24T00:24:38;10.80;99.90
39825;DHT22;25503;52.532;13.640;2023-04-24T00:27:04;10.80;99.90
39825;DHT22;25503;52.532;13.640;2023-04-24T00:29:30;10.80;99.90
39825;DHT22;25503;52.532;13.640;2023-04-24T00:31:55;10.80;99.90
39825;DHT22;25503;52.532;13.640;2023-04-24T00:34:21;10.80;99.90
39825;DHT22;25503;52.532;13.640;2023-04-24T00:36:47;10.70;99.90
39825;DHT22;25503;52.532;13.640;2023-04-24T00:39:14;10.70;99.90
39825;DHT22;25503;52.532;13.640;2023-04-24T00:41:41;10.70;99.90
39825;DHT22;25503;52.532;13.640;2023-04-24T00:44:06;10.70;99.90
39825;DHT22;25503;52.532;13.640;2023-04-24T00:46:32;10.60;99.90
39825;DHT22;25503;52.532;13.640;2023-04-24T00:48:59;10.60;99.90
39825;DHT22;25503;52.532;13.640;2023-04-24T00:51:24;10.60;99.90
39825;DHT22;25503;52.532;13.640;2023-04-24T00:53:50;10.60;99.90
39825;DHT22;25503;52.532;13.640;2023-04-24T00:56:18;10.60;99.90
39825;DHT22;25503;52.532;13.640;2023-04-24T00:58:44;10.60;99.90
39825;DHT22;25503;52.532;13.640;2023-04-24T01:01:10;10.60;99.90
39825;DHT22;25503;52.532;13.640;2023-04-24T01:03:37;10.60;99.90
39825;DHT22;25503;52.532;13.640;2023-04-24T01:06:04;10.60;99.90
39825;DHT22;25503;52.532;13.640;2023-04-24T01:08:30;10.60;99.90
39825;DHT22;25503;52.532;13.640;2023-04-24T01:10:57;10.60;99.90
39825;DHT22;25503;52.532;13.640;2023-04-24T01:13:23;10.60;99.90
39825;DHT22;25503;52.532;13.640;2023-04-24T01:15:49;10.60;99.90
39825;DHT22;25503;52.532;13.640;2023-04-24T01:18:15;10.50;99.90
39825;DHT22;25503;52.532;13.640;2023-04-24T01:20:42;10.50;99.90
39825;DHT22;25503;52.532;13.640;2023-04-24T01:23:09;10.60;99.90
39825;DHT22;25503;52.532;13.640;2023-04-24T01:25:35;10.50;99.90
39825;DHT22;25503;52.532;13.640;2023-04-24T01:28:01;10.50;99.90
39825;DHT22;25503;52.532;13.640;2023-04-24T01:30:27;10.50;99.90
39825;DHT22;25503;52.532;13.640;2023-04-24T01:32:53;10.50;99.90
39825;DHT22;25503;52.532;13.640;2023-04-24T01:35:19;10.50;99.90
39825;DHT22;25503;52.532;13.640;2023-04-24T01:37:45;10.50;99.90
39825;DHT22;25503;52.532;13.640;2023-04-24T01:40:11;10.60;99.90
39825;DHT22;25503;52.532;13.640;2023-04-24T01:42:37;10.60;99.90
39825;DHT22;25503;52.532;13.640;2023-04-24T01:45:04;10.60;99.90
39825;DHT22;25503;52.532;13.640;2023-04-24T01:47:31;10.60;99.90
39825;DHT22;25503;52.532;13.640;2023-04-24T01:49:57;10.60;99.90
39825;DHT22;25503;52.532;13.640;2023-04-24T01:52:23;10.60;99.90
39825;DHT22;25503;52.532;13.640;2023-04-24T01:54:49;10.70;99.90
39825;DHT22;25503;52.532;13.640;2023-04-24T01:57:15;10.70;99.90
39825;DHT22;25503;52.532;13.640;2023-04-24T01:59:41;10.70;99.90
39825;DHT22;25503;52.532;13.640;2023-04-24T02:02:07;10.70;99.90
39825;DHT22;25503;52.532;13.640;2023-04-24T02:04:33;10.60;99.90
39825;DHT22;25503;52.532;13.640;2023-04-24T02:06:58;10.60;99.90
39825;DHT22;25503;52.532;13.640;2023-04-24T02:09:24;10.60;99.90
39825;DHT22;25503;52.532;13.640;2023-04-24T02:11:50;10.60;99.90
39825;DHT22;25503;52.532;13.640;2023-04-24T02:14:16;10.60;99.90
39825;DHT22;25503;52.532;13.640;2023-04-24T02:16:41;10.60;99.90
39825;DHT22;25503;52.532;13.640;2023-04-24T02:19:07;10.60;99.90
39825;DHT22;25503;52.532;13.640;2023-04-24T02:21:33;10.60;99.90
39825;DHT22;25503;52.532;13.640;2023-04-24T02:23:59;10.60;99.90
39825;DHT22;25503;52.532;13.640;2023-04-24T02:26:25;10.60;99.90
39825;DHT22;25503;52.532;13.640;2023-04-24T02:28:50;10.50;99.90
39825;DHT22;25503;52.532;13.640;2023-04-24T02:31:16;10.50;99.90
39825;DHT22;25503;52.532;13.640;2023-04-24T02:33:42;10.50;99.90
39825;DHT22;25503;52.532;13.640;2023-04-24T02:36:07;10.50;99.90
39825;DHT22;25503;52.532;13.640;2023-04-24T02:38:33;10.50;99.90
39825;DHT22;25503;52.532;13.640;2023-04-24T02:40:58;10.50;99.90
39825;DHT22;25503;52.532;13.640;2023-04-24T02:43:24;10.50;99.90
39825;DHT22;25503;52.532;13.640;2023-04-24T02:45:49;10.50;99.90
39825;DHT22;25503;52.532;13.640;2023-04-24T02:48:15;10.50;99.90
39825;DHT22;25503;52.532;13.640;2023-04-24T02:50:42;10.50;99.90
39825;DHT22;25503;52.532;13.640;2023-04-24T02:53:07;10.50;99.90
39825;DHT22;25503;52.532;13.640;2023-04-24T02:55:33;10.40;99.90
39825;DHT22;25503;52.532;13.640;2023-04-24T02:57:58;10.40;99.90
39825;DHT22;25503;52.532;13.640;2023-04-24T03:00:24;10.40;99.90
39825;DHT22;25503;52.532;13.640;2023-04-24T03:02:50;10.40;99.90
39825;DHT22;25503;52.532;13.640;2023-04-24T03:05:16;10.40;99.90
39825;DHT22;25503;52.532;13.640;2023-04-24T03:07:41;10.50;99.90
39825;DHT22;25503;52.532;13.640;2023-04-24T03:10:07;10.50;99.90
39825;DHT22;25503;52.532;13.640;2023-04-24T03:12:33;10.50;99.90
39825;DHT22;25503;52.532;13.640;2023-04-24T03:14:59;10.50;99.90
39825;DHT22;25503;52.532;13.640;2023-04-24T03:17:25;10.50;99.90
39825;DHT22;25503;52.532;13.640;2023-04-24T03:19:50;10.50;99.90
39825;DHT22;25503;52.532;13.640;2023-04-24T03:22:16;10.50;99.90
39825;DHT22;25503;52.532;13.640;2023-04-24T03:24:41;10.60;99.90
39825;DHT22;25503;52.532;13.640;2023-04-24T03:27:07;10.60;99.90
39825;DHT22;25503;52.532;13.640;2023-04-24T03:29:32;10.60;99.90
39825;DHT22;25503;52.532;13.640;2023-04-24T03:31:58;10.60;99.90
39825;DHT22;25503;52.532;13.640;2023-04-24T03:34:23;10.70;99.90
39825;DHT22;25503;52.532;13.640;2023-04-24T03:36:49;10.70;99.90
39825;DHT22;25503;52.532;13.640;2023-04-24T03:39:15;10.70;99.90
39825;DHT22;25503;52.532;13.640;2023-04-24T03:41:41;10.70;99.90
39825;DHT22;25503;52.532;13.640;2023-04-24T03:44:06;10.70;99.90
39825;DHT22;25503;52.532;13.640;2023-04-24T03:46:32;10.70;99.90
39825;DHT22;25503;52.532;13.640;2023-04-24T03:48:57;10.70;99.90
39825;DHT22;25503;52.532;13.640;2023-04-24T03:51:23;10.80;99.90
39825;DHT22;25503;52.532;13.640;2023-04-24T03:53:49;10.80;99.90
39825;DHT22;25503;52.532;13.640;2023-04-24T03:56:15;10.80;99.90
39825;DHT22;25503;52.532;13.640;2023-04-24T03:58:40;10.80;99.90
39825;DHT22;25503;52.532;13.640;2023-04-24T04:01:06;10.90;99.90
39825;DHT22;25503;52.532;13.640;2023-04-24T04:03:32;10.90;99.90
39825;DHT22;25503;52.532;13.640;2023-04-24T04:05:58;10.90;99.90
39825;DHT22;25503;52.532;13.640;2023-04-24T04:08:24;11.00;99.90
39825;DHT22;25503;52.532;13.640;2023-04-24T04:10:49;11.00;99.90
39825;DHT22;25503;52.532;13.640;2023-04-24T04:13:15;11.00;99.90
39825;DHT22;25503;52.532;13.640;2023-04-24T04:15:40;11.00;99.90
39825;DHT22;25503;52.532;13.640;2023-04-24T04:18:06;11.00;99.90
39825;DHT22;25503;52.532;13.640;2023-04-24T04:20:32;11.10;99.90
39825;DHT22;25503;52.532;13.640;2023-04-24T04:22:57;11.10;99.90
39825;DHT22;25503;52.532;13.640;2023-04-24T04:25:23;11.10;99.90
39825;DHT22;25503;52.532;13.640;2023-04-24T04:27:48;11.10;99.90
39825;DHT22;25503;52.532;13.640;2023-04-24T04:30:14;11.10;99.90
39825;DHT22;25503;52.532;13.640;2023-04-24T04:32:40;11.10;99.90
39825;DHT22;25503;52.532;13.640;2023-04-24T04:35:06;11.20;99.90
39825;DHT22;25503;52.532;13.640;2023-04-24T04:37:35;11.20;99.90
39825;DHT22;25503;52.532;13.640;2023-04-24T04:40:01;11.10;99.90
39825;DHT22;25503;52.532;13.640;2023-04-24T04:42:31;11.20;99.90
39825;DHT22;25503;52.532;13.640;2023-04-24T04:44:58;11.20;99.90
39825;DHT22;25503;52.532;13.640;2023-04-24T04:47:23;11.20;99.90
39825;DHT22;25503;52.532;13.640;2023-04-24T04:49:49;11.30;99.90
39825;DHT22;25503;52.532;13.640;2023-04-24T04:52:17;11.30;99.90
39825;DHT22;25503;52.532;13.640;2023-04-24T04:54:43;11.30;99.90
39825;DHT22;25503;52.532;13.640;2023-04-24T04:57:09;11.30;99.90
39825;DHT22;25503;52.532;13.640;2023-04-24T04:59:34;11.40;99.90
39825;DHT22;25503;52.532;13.640;2023-04-24T05:02:00;11.40;99.90
39825;DHT22;25503;52.532;13.640;2023-04-24T05:04:26;11.40;99.90
39825;DHT22;25503;52.532;13.640;2023-04-24T05:06:52;11.50;99.90
39825;DHT22;25503;52.532;13.640;2023-04-24T05:09:18;11.50;99.90
39825;DHT22;25503;52.532;13.640;2023-04-24T05:11:43;11.50;99.90
39825;DHT22;25503;52.532;13.640;2023-04-24T05:14:09;11.60;99.90
39825;DHT22;25503;52.532;13.640;2023-04-24T05:16:35;11.60;99.90
39825;DHT22;25503;52.532;13.640;2023-04-24T05:19:02;11.60;99.90
39825;DHT22;25503;52.532;13.640;2023-04-24T05:21:28;11.70;99.90
39825;DHT22;25503;52.532;13.640;2023-04-24T05:23:53;11.70;99.90
39825;DHT22;25503;52.532;13.640;2023-04-24T05:26:19;11.80;99.90
39825;DHT22;25503;52.532;13.640;2023-04-24T05:28:44;11.80;99.90
39825;DHT22;25503;52.532;13.640;2023-04-24T05:31:10;11.80;99.90
39825;DHT22;25503;52.532;13.640;2023-04-24T05:33:37;11.90;99.90
39825;DHT22;25503;52.532;13.640;2023-04-24T05:36:03;11.90;99.90
39825;DHT22;25503;52.532;13.640;2023-04-24T05:38:30;12.00;99.90
39825;DHT22;25503;52.532;13.640;2023-04-24T05:40:56;12.00;99.90
39825;DHT22;25503;52.532;13.640;2023-04-24T05:43:22;12.00;99.90
39825;DHT22;25503;52.532;13.640;2023-04-24T05:45:47;12.10;99.90
39825;DHT22;25503;52.532;13.640;2023-04-24T05:48:14;12.20;99.90
39825;DHT22;25503;52.532;13.640;2023-04-24T05:50:40;12.30;99.90
39825;DHT22;25503;52.532;13.640;2023-04-24T05:53:05;12.40;99.90
39825;DHT22;25503;52.532;13.640;2023-04-24T05:55:32;12.50;99.90
39825;DHT22;25503;52.532;13.640;2023-04-24T05:57:58;12.50;99.90
39825;DHT22;25503;52.532;13.640;2023-04-24T06:00:24;12.60;99.90
39825;DHT22;25503;52.532;13.640;2023-04-24T06:02:50;12.60;99.90
39825;DHT22;25503;52.532;13.640;2023-04-24T06:05:15;12.70;99.90
39825;DHT22;25503;52.532;13.640;2023-04-24T06:07:41;12.80;99.90
39825;DHT22;25503;52.532;13.640;2023-04-24T06:10:07;12.90;99.90
39825;DHT22;25503;52.532;13.640;2023-04-24T06:12:33;13.00;99.90
39825;DHT22;25503;52.532;13.640;2023-04-24T06:14:59;13.00;99.90
39825;DHT22;25503;52.532;13.640;2023-04-24T06:17:25;13.00;99.90
39825;DHT22;25503;52.532;13.640;2023-04-24T06:19:51;13.10;99.90
39825;DHT22;25503;52.532;13.640;2023-04-24T06:22:16;13.10;99.90
39825;DHT22;25503;52.532;13.640;2023-04-24T06:24:42;13.10;99.90
39825;DHT22;25503;52.532;13.640;2023-04-24T06:27:07;13.20;99.90
39825;DHT22;25503;52.532;13.640;2023-04-24T06:29:34;13.20;99.90
39825;DHT22;25503;52.532;13.640;2023-04-24T06:31:59;13.30;99.90
39825;DHT22;25503;52.532;13.640;2023-04-24T06:34:25;13.40;99.90
39825;DHT22;25503;52.532;13.640;2023-04-24T06:36:51;13.50;99.90
39825;DHT22;25503;52.532;13.640;2023-04-24T06:39:16;13.50;99.90
39825;DHT22;25503;52.532;13.640;2023-04-24T06:41:42;13.60;99.90
39825;DHT22;25503;52.532;13.640;2023-04-24T06:44:08;13.60;99.90
39825;DHT22;25503;52.532;13.640;2023-04-24T06:46:33;13.60;99.90
39825;DHT22;25503;52.532;13.640;2023-04-24T06:49:00;13.50;99.90
39825;DHT22;25503;52.532;13.640;2023-04-24T06:51:26;13.50;99.90
39825;DHT22;25503;52.532;13.640;2023-04-24T06:53:53;13.60;99.90
39825;DHT22;25503;52.532;13.640;2023-04-24T06:56:19;13.70;99.90
39825;DHT22;25503;52.532;13.640;2023-04-24T06:58:45;13.80;99.90
39825;DHT22;25503;52.532;13.640;2023-04-24T07:01:11;13.90;99.90
39825;DHT22;25503;52.532;13.640;2023-04-24T07:03:36;14.00;99.90
39825;DHT22;25503;52.532;13.640;2023-04-24T07:06:04;14.10;99.90
39825;DHT22;25503;52.532;13.640;2023-04-24T07:08:29;14.20;99.90
39825;DHT22;25503;52.532;13.640;2023-04-24T07:10:59;14.30;99.90
39825;DHT22;25503;52.532;13.640;2023-04-24T07:13:24;14.40;99.90
39825;DHT22;25503;52.532;13.640;2023-04-24T07:15:50;14.50;99.90
39825;DHT22;25503;52.532;13.640;2023-04-24T07:18:17;14.60;99.90
39825;DHT22;25503;52.532;13.640;2023-04-24T07:20:43;14.70;99.90
39825;DHT22;25503;52.532;13.640;2023-04-24T07:23:10;14.80;99.90
39825;DHT22;25503;52.532;13.640;2023-04-24T07:25:35;14.90;99.90
39825;DHT22;25503;52.532;13.640;2023-04-24T07:28:01;15.00;99.90
39825;DHT22;25503;52.532;13.640;2023-04-24T07:30:27;15.00;99.90
39825;DHT22;25503;52.532;13.640;2023-04-24T07:32:54;15.10;99.90
39825;DHT22;25503;52.532;13.640;2023-04-24T07:35:20;15.20;99.90
39825;DHT22;25503;52.532;13.640;2023-04-24T07:37:46;15.30;99.90
39825;DHT22;25503;52.532;13.640;2023-04-24T07:40:13;15.40;99.90
39825;DHT22;25503;52.532;13.640;2023-04-24T07:42:39;15.50;99.90
39825;DHT22;25503;52.532;13.640;2023-04-24T07:45:05;15.60;99.90
39825;DHT22;25503;52.532;13.640;2023-04-24T07:47:31;15.70;99.90
39825;DHT22;25503;52.532;13.640;2023-04-24T07:49:57;15.80;99.90
39825;DHT22;25503;52.532;13.640;2023-04-24T07:52:23;15.90;99.90
39825;DHT22;25503;52.532;13.640;2023-04-24T07:54:49;15.90;99.90
39825;DHT22;25503;52.532;13.640;2023-04-24T07:57:15;15.90;99.90
39825;DHT22;25503;52.532;13.640;2023-04-24T07:59:41;15.90;99.90
39825;DHT22;25503;52.532;13.640;2023-04-24T08:02:08;15.90;99.90
39825;DHT22;25503;52.532;13.640;2023-04-24T08:04:34;16.00;99.90
39825;DHT22;25503;52.532;13.640;2023-04-24T08:07:00;16.00;99.90
39825;DHT22;25503;52.532;13.640;2023-04-24T08:09:25;15.90;99.90
39825;DHT22;25503;52.532;13.640;2023-04-24T08:11:51;15.90;99.90
39825;DHT22;25503;52.532;13.640;2023-04-24T08:14:17;16.00;99.90
39825;DHT22;25503;52.532;13.640;2023-04-24T08:16:42;16.00;99.90
39825;DHT22;25503;52.532;13.640;2023-04-24T08:19:08;16.10;99.90
39825;DHT22;25503;52.532;13.640;2023-04-24T08:21:33;16.10;99.90
39825;DHT22;25503;52.532;13.640;2023-04-24T08:23:59;16.20;99.90
39825;DHT22;25503;52.532;13.640;2023-04-24T08:26:25;16.20;99.90
39825;DHT22;25503;52.532;13.640;2023-04-24T08:28:50;16.30;99.90
39825;DHT22;25503;52.532;13.640;2023-04-24T08:31:16;16.30;99.90
39825;DHT22;25503;52.532;13.640;2023-04-24T08:33:41;16.50;99.90
39825;DHT22;25503;52.532;13.640;2023-04-24T08:36:10;16.60;99.90
39825;DHT22;25503;52.532;13.640;2023-04-24T08:38:35;16.80;99.90
39825;DHT22;25503;52.532;13.640;2023-04-24T08:41:01;16.90;99.90
39825;DHT22;25503;52.532;13.640;2023-04-24T08:43:27;17.00;99.90
39825;DHT22;25503;52.532;13.640;2023-04-24T08:45:55;17.00;99.90
39825;DHT22;25503;52.532;13.640;2023-04-24T08:48:22;17.00;99.90
39825;DHT22;25503;52.532;13.640;2023-04-24T08:50:50;17.20;99.90
39825;DHT22;25503;52.532;13.640;2023-04-24T08:53:18;17.20;99.90
39825;DHT22;25503;52.532;13.640;2023-04-24T08:55:46;17.30;99.90
39825;DHT22;25503;52.532;13.640;2023-04-24T08:58:12;17.40;99.90
39825;DHT22;25503;52.532;13.640;2023-04-24T09:00:39;17.50;99.90
39825;DHT22;25503;52.532;13.640;2023-04-24T09:03:05;17.40;99.90
39825;DHT22;25503;52.532;13.640;2023-04-24T09:05:32;17.50;99.90
39825;DHT22;25503;52.532;13.640;2023-04-24T09:07:59;17.60;99.90
39825;DHT22;25503;52.532;13.640;2023-04-24T09:10:27;17.70;99.90
39825;DHT22;25503;52.532;13.640;2023-04-24T09:12:56;17.70;99.90
39825;DHT22;25503;52.532;13.640;2023-04-24T09:15:24;17.70;99.90
39825;DHT22;25503;52.532;13.640;2023-04-24T09:17:50;17.60;99.90
39825;DHT22;25503;52.532;13.640;2023-04-24T09:20:15;17.60;99.90
39825;DHT22;25503;52.532;13.640;2023-04-24T09:22:42;17.50;99.90
39825;DHT22;25503;52.532;13.640;2023-04-24T09:25:08;17.40;99.90
39825;DHT22;25503;52.532;13.640;2023-04-24T09:27:35;17.30;99.90
39825;DHT22;25503;52.532;13.640;2023-04-24T09:30:01;17.40;99.90
39825;DHT22;25503;52.532;13.640;2023-04-24T09:32:27;17.40;99.90
39825;DHT22;25503;52.532;13.640;2023-04-24T09:35:16;17.40;99.90
39825;DHT22;25503;52.532;13.640;2023-04-24T09:37:43;17.50;99.90
39825;DHT22;25503;52.532;13.640;2023-04-24T09:42:38;17.40;99.90
39825;DHT22;25503;52.532;13.640;2023-04-24T09:45:08;17.40;99.90
39825;DHT22;25503;52.532;13.640;2023-04-24T09:47:40;17.40;99.90
39825;DHT22;25503;52.532;13.640;2023-04-24T09:50:14;17.40;99.90
39825;DHT22;25503;52.532;13.640;2023-04-24T09:52:45;17.30;99.90
39825;DHT22;25503;52.532;13.640;2023-04-24T09:55:19;17.20;99.90
39825;DHT22;25503;52.532;13.640;2023-04-24T09:57:53;17.20;99.90
39825;DHT22;25503;52.532;13.640;2023-04-24T10:00:24;17.20;99.90
39825;DHT22;25503;52.532;13.640;2023-04-24T10:08:09;16.90;99.90
39825;DHT22;25503;52.532;13.640;2023-04-24T10:10:42;16.90;99.90
39825;DHT22;25503;52.532;13.640;2023-04-24T10:13:13;16.80;99.90
39825;DHT22;25503;52.532;13.640;2023-04-24T10:15:40;16.90;99.90
39825;DHT22;25503;52.532;13.640;2023-04-24T10:18:06;16.90;99.90
39825;DHT22;25503;52.532;13.640;2023-04-24T10:20:33;16.90;99.90
39825;DHT22;25503;52.532;13.640;2023-04-24T10:23:00;16.90;99.90
39825;DHT22;25503;52.532;13.640;2023-04-24T10:25:31;17.00;99.90
39825;DHT22;25503;52.532;13.640;2023-04-24T10:27:58;17.00;99.90
39825;DHT22;25503;52.532;13.640;2023-04-24T10:30:27;17.00;99.90
39825;DHT22;25503;52.532;13.640;2023-04-24T10:32:53;17.10;99.90
39825;DHT22;25503;52.532;13.640;2023-04-24T10:35:19;17.20;99.90
39825;DHT22;25503;52.532;13.640;2023-04-24T10:40:19;17.10;99.90
39825;DHT22;25503;52.532;13.640;2023-04-24T10:42:52;17.00;99.90
39825;DHT22;25503;52.532;13.640;2023-04-24T10:45:22;16.90;99.90
39825;DHT22;25503;52.532;13.640;2023-04-24T10:47:58;17.00;99.90
39825;DHT22;25503;52.532;13.640;2023-04-24T10:50:27;17.10;99.90
39825;DHT22;25503;52.532;13.640;2023-04-24T10:52:53;17.10;99.90
39825;DHT22;25503;52.532;13.640;2023-04-24T10:55:44;17.10;99.90
39825;DHT22;25503;52.532;13.640;2023-04-24T10:58:10;17.10;99.90
39825;DHT22;25503;52.532;13.640;2023-04-24T11:00:40;17.20;99.90
39825;DHT22;25503;52.532;13.640;2023-04-24T11:03:12;17.20;99.90
39825;DHT22;25503;52.532;13.640;2023-04-24T11:06:07;17.30;99.90
39825;DHT22;25503;52.532;13.640;2023-04-24T11:08:43;17.30;99.90
39825;DHT22;25503;52.532;13.640;2023-04-24T11:11:17;17.40;99.90
39825;DHT22;25503;52.532;13.640;2023-04-24T11:18:52;17.90;99.90
39825;DHT22;25503;52.532;13.640;2023-04-24T11:21:25;18.00;99.90
39825;DHT22;25503;52.532;13.640;2023-04-24T11:23:51;18.00;99.90
39825;DHT22;25503;52.532;13.640;2023-04-24T11:26:23;17.90;99.90
39825;DHT22;25503;52.532;13.640;2023-04-24T11:29:06;18.00;99.90
39825;DHT22;25503;52.532;13.640;2023-04-24T11:31:44;18.20;99.90
39825;DHT22;25503;52.532;13.640;2023-04-24T11:34:17;18.40;99.90
39825;DHT22;25503;52.532;13.640;2023-04-24T11:36:46;18.30;99.90
39825;DHT22;25503;52.532;13.640;2023-04-24T11:39:15;18.40;99.90
39825;DHT22;25503;52.532;13.640;2023-04-24T11:41:41;18.50;99.90
39825;DHT22;25503;52.532;13.640;2023-04-24T11:44:09;18.50;99.90
39825;DHT22;25503;52.532;13.640;2023-04-24T11:46:36;18.20;99.90
39825;DHT22;25503;52.532;13.640;2023-04-24T11:49:03;18.10;99.90
39825;DHT22;25503;52.532;13.640;2023-04-24T11:51:29;17.80;99.90
39825;DHT22;25503;52.532;13.640;2023-04-24T11:53:56;17.60;99.90
39825;DHT22;25503;52.532;13.640;2023-04-24T11:56:25;17.50;99.90
39825;DHT22;25503;52.532;13.640;2023-04-24T11:58:53;17.10;99.90
39825;DHT22;25503;52.532;13.640;2023-04-24T12:01:20;16.60;99.90
39825;DHT22;25503;52.532;13.640;2023-04-24T12:03:50;16.10;99.90
39825;DHT22;25503;52.532;13.640;2023-04-24T12:06:16;15.70;99.90
39825;DHT22;25503;52.532;13.640;2023-04-24T12:08:46;15.50;99.90
39825;DHT22;25503;52.532;13.640;2023-04-24T12:11:15;15.50;99.90
39825;DHT22;25503;52.532;13.640;2023-04-24T12:13:41;15.50;99.90
39825;DHT22;25503;52.532;13.640;2023-04-24T12:16:06;15.60;99.90
39825;DHT22;25503;52.532;13.640;2023-04-24T12:18:32;15.80;99.90
39825;DHT22;25503;52.532;13.640;2023-04-24T12:21:17;15.90;99.90
39825;DHT22;25503;52.532;13.640;2023-04-24T12:23:44;16.00;99.90
39825;DHT22;25503;52.532;13.640;2023-04-24T12:26:11;16.30;99.90
39825;DHT22;25503;52.532;13.640;2023-04-24T12:28:38;16.60;99.90
39825;DHT22;25503;52.532;13.640;2023-04-24T12:31:04;16.70;99.90
39825;DHT22;25503;52.532;13.640;2023-04-24T12:33:35;16.80;99.90
39825;DHT22;25503;52.532;13.640;2023-04-24T12:36:01;16.80;99.90
39825;DHT22;25503;52.532;13.640;2023-04-24T12:38:28;16.80;99.90
39825;DHT22;25503;52.532;13.640;2023-04-24T12:41:11;16.70;99.90
39825;DHT22;25503;52.532;13.640;2023-04-24T12:43:37;16.80;99.90
39825;DHT22;25503;52.532;13.640;2023-04-24T12:46:03;17.00;99.90
39825;DHT22;25503;52.532;13.640;2023-04-24T12:48:30;17.30;99.90
39825;DHT22;25503;52.532;13.640;2023-04-24T12:50:59;17.40;99.90
39825;DHT22;25503;52.532;13.640;2023-04-24T12:53:27;17.50;99.90
39825;DHT22;25503;52.532;13.640;2023-04-24T12:55:55;17.50;99.90
39825;DHT22;25503;52.532;13.640;2023-04-24T12:58:20;17.40;99.90
39825;DHT22;25503;52.532;13.640;2023-04-24T13:00:46;17.50;99.90
39825;DHT22;25503;52.532;13.640;2023-04-24T13:03:12;17.60;99.90
39825;DHT22;25503;52.532;13.640;2023-04-24T13:05:39;17.70;99.90
39825;DHT22;25503;52.532;13.640;2023-04-24T13:08:05;17.70;99.90
39825;DHT22;25503;52.532;13.640;2023-04-24T13:10:31;17.60;99.90
39825;DHT22;25503;52.532;13.640;2023-04-24T13:12:57;17.60;99.90
39825;DHT22;25503;52.532;13.640;2023-04-24T13:15:22;17.70;99.90
39825;DHT22;25503;52.532;13.640;2023-04-24T13:17:48;17.90;99.90
39825;DHT22;25503;52.532;13.640;2023-04-24T13:20:13;18.00;99.90
39825;DHT22;25503;52.532;13.640;2023-04-24T13:22:39;18.20;99.90
39825;DHT22;25503;52.532;13.640;2023-04-24T13:25:05;18.50;99.90
39825;DHT22;25503;52.532;13.640;2023-04-24T13:27:34;18.50;99.90
39825;DHT22;25503;52.532;13.640;2023-04-24T13:30:00;18.40;99.90
39825;DHT22;25503;52.532;13.640;2023-04-24T13:32:25;18.40;99.90
39825;DHT22;25503;52.532;13.640;2023-04-24T13:34:52;18.30;99.90
39825;DHT22;25503;52.532;13.640;2023-04-24T13:37:17;18.40;99.90
39825;DHT22;25503;52.532;13.640;2023-04-24T13:39:43;18.50;99.90
39825;DHT22;25503;52.532;13.640;2023-04-24T13:42:09;18.50;99.90
39825;DHT22;25503;52.532;13.640;2023-04-24T13:44:34;18.60;99.90
39825;DHT22;25503;52.532;13.640;2023-04-24T13:47:00;18.70;99.90
39825;DHT22;25503;52.532;13.640;2023-04-24T13:49:26;18.70;99.90
39825;DHT22;25503;52.532;13.640;2023-04-24T13:51:53;18.60;99.90
39825;DHT22;25503;52.532;13.640;2023-04-24T13:54:19;18.40;99.90
39825;DHT22;25503;52.532;13.640;2023-04-24T13:56:45;18.30;99.90
39825;DHT22;25503;52.532;13.640;2023-04-24T13:59:12;18.20;99.90
39825;DHT22;25503;52.532;13.640;2023-04-24T14:01:38;18.30;99.90
39825;DHT22;25503;52.532;13.640;2023-04-24T14:04:04;18.30;99.90
39825;DHT22;25503;52.532;13.640;2023-04-24T14:06:29;18.30;99.90
39825;DHT22;25503;52.532;13.640;2023-04-24T14:08:56;18.30;99.90
39825;DHT22;25503;52.532;13.640;2023-04-24T14:11:22;18.40;99.90
39825;DHT22;25503;52.532;13.640;2023-04-24T14:13:47;18.30;99.90
39825;DHT22;25503;52.532;13.640;2023-04-24T14:16:13;18.40;99.90
39825;DHT22;25503;52.532;13.640;2023-04-24T14:18:39;18.60;99.90
39825;DHT22;25503;52.532;13.640;2023-04-24T14:21:05;18.60;99.90
39825;DHT22;25503;52.532;13.640;2023-04-24T14:23:31;18.60;99.90
39825;DHT22;25503;52.532;13.640;2023-04-24T14:25:58;18.40;99.90
39825;DHT22;25503;52.532;13.640;2023-04-24T14:28:24;18.40;99.90
39825;DHT22;25503;52.532;13.640;2023-04-24T14:30:50;18.50;99.90
39825;DHT22;25503;52.532;13.640;2023-04-24T14:33:16;18.60;99.90
39825;DHT22;25503;52.532;13.640;2023-04-24T14:35:42;18.50;99.90
39825;DHT22;25503;52.532;13.640;2023-04-24T14:38:08;18.60;99.90
39825;DHT22;25503;52.532;13.640;2023-04-24T14:40:34;18.50;99.90
39825;DHT22;25503;52.532;13.640;2023-04-24T14:43:00;18.40;99.90
39825;DHT22;25503;52.532;13.640;2023-04-24T14:45:26;18.30;99.90
39825;DHT22;25503;52.532;13.640;2023-04-24T14:47:52;18.30;99.90
39825;DHT22;25503;52.532;13.640;2023-04-24T14:50:18;18.20;99.90
39825;DHT22;25503;52.532;13.640;2023-04-24T14:52:44;18.20;99.90
39825;DHT22;25503;52.532;13.640;2023-04-24T14:55:10;18.10;99.90
39825;DHT22;25503;52.532;13.640;2023-04-24T14:57:35;18.20;99.90
39825;DHT22;25503;52.532;13.640;2023-04-24T15:00:03;18.20;99.90
39825;DHT22;25503;52.532;13.640;2023-04-24T15:02:32;18.30;99.90
39825;DHT22;25503;52.532;13.640;2023-04-24T15:04:57;18.40;99.90
39825;DHT22;25503;52.532;13.640;2023-04-24T15:07:24;18.40;99.90
39825;DHT22;25503;52.532;13.640;2023-04-24T15:09:49;18.30;99.90
39825;DHT22;25503;52.532;13.640;2023-04-24T15:12:15;18.30;99.90
39825;DHT22;25503;52.532;13.640;2023-04-24T15:14:41;18.30;99.90
39825;DHT22;25503;52.532;13.640;2023-04-24T15:17:06;18.10;99.90
39825;DHT22;25503;52.532;13.640;2023-04-24T15:19:32;18.10;99.90
39825;DHT22;25503;52.532;13.640;2023-04-24T15:21:58;17.90;99.90
39825;DHT22;25503;52.532;13.640;2023-04-24T15:24:24;18.00;99.90
39825;DHT22;25503;52.532;13.640;2023-04-24T15:26:50;18.10;99.90